sensor_id;sensor_type;location;lat;lon;timestamp;temperature;humidity
8994;DHT22;4532;50.886;4.700;2023-07-28T00:00:17;21.10;99.90
8994;DHT22;4532;50.886;4.700;2023-07-28T00:02:45;21.10;99.90
8994;DHT22;4532;50.886;4.700;2023-07-28T00:05:12;21.20;99.90
8994;DHT22;4532;50.886;4.700;2023-07-28T00:07:41;21.20;99.90
8994;DHT22;4532;50.886;4.700;2023-07-28T00:10:11;21.20;99.90
8994;DHT22;4532;50.886;4.700;2023-07-28T00:12:39;21.20;99.90
8994;DHT22;4532;50.886;4.700;2023-07-28T00:15:08;21.20;99.90
8994;DHT22;4532;50.886;4.700;2023-07-28T00:17:36;21.20;99.90
8994;DHT22;4532;50.886;4.700;2023-07-28T00:20:03;21.20;99.90
8994;DHT22;4532;50.886;4.700;2023-07-28T00:22:31;21.20;99.90
8994;DHT22;4532;50.886;4.700;2023-07-28T00:25:00;21.20;99.90
8994;DHT22;4532;50.886;4.700;2023-07-28T00:27:30;21.20;99.90
8994;DHT22;4532;50.886;4.700;2023-07-28T00:29:57;21.20;99.90
8994;DHT22;4532;50.886;4.700;2023-07-28T00:32:24;21.20;99.90
8994;DHT22;4532;50.886;4.700;2023-07-28T00:34:52;21.20;99.90
8994;DHT22;4532;50.886;4.700;2023-07-28T00:37:19;21.20;99.90
8994;DHT22;4532;50.886;4.700;2023-07-28T00:39:46;21.20;99.90
8994;DHT22;4532;50.886;4.700;2023-07-28T00:42:13;21.20;99.90
8994;DHT22;4532;50.886;4.700;2023-07-28T00:44:40;21.30;99.90
8994;DHT22;4532;50.886;4.700;2023-07-28T00:47:08;21.30;99.90
8994;DHT22;4532;50.886;4.700;2023-07-28T00:49:40;21.30;99.90
8994;DHT22;4532;50.886;4.700;2023-07-28T00:52:08;21.30;99.90
8994;DHT22;4532;50.886;4.700;2023-07-28T00:54:36;21.30;99.90
8994;DHT22;4532;50.886;4.700;2023-07-28T00:57:03;21.30;99.90
8994;DHT22;4532;50.886;4.700;2023-07-28T00:59:36;21.30;99.90
8994;DHT22;4532;50.886;4.700;2023-07-28T01:02:04;21.20;99.90
8994;DHT22;4532;50.886;4.700;2023-07-28T01:04:31;21.20;99.90
8994;DHT22;4532;50.886;4.700;2023-07-28T01:10:08;21.30;99.90
8994;DHT22;4532;50.886;4.700;2023-07-28T01:12:37;21.30;99.90
8994;DHT22;4532;50.886;4.700;2023-07-28T01:15:07;21.20;99.90
8994;DHT22;4532;50.886;4.700;2023-07-28T01:17:34;21.30;99.90
8994;DHT22;4532;50.886;4.700;2023-07-28T01:20:02;21.20;99.90
8994;DHT22;4532;50.886;4.700;2023-07-28T01:28:04;21.30;99.90
8994;DHT22;4532;50.886;4.700;2023-07-28T01:30:31;21.20;99.90
8994;DHT22;4532;50.886;4.700;2023-07-28T01:32:58;21.20;99.90
8994;DHT22;4532;50.886;4.700;2023-07-28T01:35:26;21.30;99.90
8994;DHT22;4532;50.886;4.700;2023-07-28T01:37:55;21.20;99.90
8994;DHT22;4532;50.886;4.700;2023-07-28T01:40:25;21.20;99.90
8994;DHT22;4532;50.886;4.700;2023-07-28T01:42:54;21.30;99.90
8994;DHT22;4532;50.886;4.700;2023-07-28T01:45:26;21.30;99.90
8994;DHT22;4532;50.886;4.700;2023-07-28T01:47:54;21.30;99.90
8994;DHT22;4532;50.886;4.700;2023-07-28T01:50:23;21.30;99.90
8994;DHT22;4532;50.886;4.700;2023-07-28T01:52:53;21.30;99.90
8994;DHT22;4532;50.886;4.700;2023-07-28T01:55:20;21.30;99.90
8994;DHT22;4532;50.886;4.700;2023-07-28T01:58:01;21.30;99.90
8994;DHT22;4532;50.886;4.700;2023-07-28T02:00:29;21.30;99.90
8994;DHT22;4532;50.886;4.700;2023-07-28T02:02:56;21.30;99.90
8994;DHT22;4532;50.886;4.700;2023-07-28T02:05:25;21.30;99.90
8994;DHT22;4532;50.886;4.700;2023-07-28T02:07:52;21.30;99.90
8994;DHT22;4532;50.886;4.700;2023-07-28T02:10:26;21.30;99.90
8994;DHT22;4532;50.886;4.700;2023-07-28T02:12:54;21.30;99.90
8994;DHT22;4532;50.886;4.700;2023-07-28T02:15:21;21.30;99.90
8994;DHT22;4532;50.886;4.700;2023-07-28T02:17:48;21.30;99.90
8994;DHT22;4532;50.886;4.700;2023-07-28T02:20:16;21.30;99.90
8994;DHT22;4532;50.886;4.700;2023-07-28T02:22:43;21.30;99.90
8994;DHT22;4532;50.886;4.700;2023-07-28T02:25:13;21.30;99.90
8994;DHT22;4532;50.886;4.700;2023-07-28T02:27:40;21.30;99.90
8994;DHT22;4532;50.886;4.700;2023-07-28T02:30:09;21.30;99.90
8994;DHT22;4532;50.886;4.700;2023-07-28T02:32:37;21.30;99.90
8994;DHT22;4532;50.886;4.700;2023-07-28T02:35:05;21.30;99.90
8994;DHT22;4532;50.886;4.700;2023-07-28T02:37:34;21.30;99.90
8994;DHT22;4532;50.886;4.700;2023-07-28T02:40:02;21.30;99.90
8994;DHT22;4532;50.886;4.700;2023-07-28T02:42:29;21.30;99.90
8994;DHT22;4532;50.886;4.700;2023-07-28T02:45:01;21.30;99.90
8994;DHT22;4532;50.886;4.700;2023-07-28T02:47:28;21.30;99.90
8994;DHT22;4532;50.886;4.700;2023-07-28T02:49:56;21.30;99.90
8994;DHT22;4532;50.886;4.700;2023-07-28T02:52:23;21.30;99.90
8994;DHT22;4532;50.886;4.700;2023-07-28T02:54:54;21.30;99.90
8994;DHT22;4532;50.886;4.700;2023-07-28T02:57:21;21.30;99.90
8994;DHT22;4532;50.886;4.700;2023-07-28T02:59:50;21.30;99.90
8994;DHT22;4532;50.886;4.700;2023-07-28T03:02:20;21.30;99.90
8994;DHT22;4532;50.886;4.700;2023-07-28T03:04:47;21.30;99.90
8994;DHT22;4532;50.886;4.700;2023-07-28T03:07:17;21.30;99.90
8994;DHT22;4532;50.886;4.700;2023-07-28T03:09:44;21.30;99.90
8994;DHT22;4532;50.886;4.700;2023-07-28T03:12:13;21.30;99.90
8994;DHT22;4532;50.886;4.700;2023-07-28T03:14:43;21.30;99.90
8994;DHT22;4532;50.886;4.700;2023-07-28T03:17:10;21.40;99.90
8994;DHT22;4532;50.886;4.700;2023-07-28T03:19:40;21.30;99.90
8994;DHT22;4532;50.886;4.700;2023-07-28T03:22:07;21.40;99.90
8994;DHT22;4532;50.886;4.700;2023-07-28T03:24:34;21.40;99.90
8994;DHT22;4532;50.886;4.700;2023-07-28T03:27:01;21.40;99.90
8994;DHT22;4532;50.886;4.700;2023-07-28T03:29:31;21.30;99.90
8994;DHT22;4532;50.886;4.700;2023-07-28T03:31:58;21.40;99.90
8994;DHT22;4532;50.886;4.700;2023-07-28T03:34:28;21.40;99.90
8994;DHT22;4532;50.886;4.700;2023-07-28T03:36:55;21.40;99.90
8994;DHT22;4532;50.886;4.700;2023-07-28T03:39:25;21.40;99.90
8994;DHT22;4532;50.886;4.700;2023-07-28T03:41:53;21.30;99.90
8994;DHT22;4532;50.886;4.700;2023-07-28T03:44:22;21.40;99.90
8994;DHT22;4532;50.886;4.700;2023-07-28T03:46:49;21.30;99.90
8994;DHT22;4532;50.886;4.700;2023-07-28T03:49:17;21.40;99.90
8994;DHT22;4532;50.886;4.700;2023-07-28T03:51:44;21.40;99.90
8994;DHT22;4532;50.886;4.700;2023-07-28T03:54:11;21.40;99.90
8994;DHT22;4532;50.886;4.700;2023-07-28T03:56:40;21.40;99.90
8994;DHT22;4532;50.886;4.700;2023-07-28T03:59:10;21.40;99.90
8994;DHT22;4532;50.886;4.700;2023-07-28T04:01:39;21.40;99.90
8994;DHT22;4532;50.886;4.700;2023-07-28T04:04:11;21.40;99.90
8994;DHT22;4532;50.886;4.700;2023-07-28T04:06:43;21.40;99.90
8994;DHT22;4532;50.886;4.700;2023-07-28T04:09:13;21.40;99.90
8994;DHT22;4532;50.886;4.700;2023-07-28T04:11:40;21.40;99.90
8994;DHT22;4532;50.886;4.700;2023-07-28T04:14:11;21.40;99.90
8994;DHT22;4532;50.886;4.700;2023-07-28T04:16:41;21.40;99.90
8994;DHT22;4532;50.886;4.700;2023-07-28T04:19:09;21.40;99.90
8994;DHT22;4532;50.886;4.700;2023-07-28T04:21:36;21.40;99.90
8994;DHT22;4532;50.886;4.700;2023-07-28T04:24:10;21.40;99.90
8994;DHT22;4532;50.886;4.700;2023-07-28T04:26:38;21.40;99.90
8994;DHT22;4532;50.886;4.700;2023-07-28T04:29:05;21.40;99.90
8994;DHT22;4532;50.886;4.700;2023-07-28T04:31:34;21.40;99.90
8994;DHT22;4532;50.886;4.700;2023-07-28T04:34:02;21.40;99.90
8994;DHT22;4532;50.886;4.700;2023-07-28T04:36:31;21.40;99.90
8994;DHT22;4532;50.886;4.700;2023-07-28T04:38:59;21.40;99.90
8994;DHT22;4532;50.886;4.700;2023-07-28T04:41:27;21.40;99.90
8994;DHT22;4532;50.886;4.700;2023-07-28T04:43:54;21.40;99.90
8994;DHT22;4532;50.886;4.700;2023-07-28T04:46:26;21.40;99.90
8994;DHT22;4532;50.886;4.700;2023-07-28T04:48:54;21.40;99.90
8994;DHT22;4532;50.886;4.700;2023-07-28T04:51:22;21.40;99.90
8994;DHT22;4532;50.886;4.700;2023-07-28T04:53:49;21.40;99.90
8994;DHT22;4532;50.886;4.700;2023-07-28T04:56:16;21.50;99.90
8994;DHT22;4532;50.886;4.700;2023-07-28T04:58:43;21.40;99.90
8994;DHT22;4532;50.886;4.700;2023-07-28T05:01:11;21.50;99.90
8994;DHT22;4532;50.886;4.700;2023-07-28T05:03:39;21.50;99.90
8994;DHT22;4532;50.886;4.700;2023-07-28T05:06:07;21.50;99.90
8994;DHT22;4532;50.886;4.700;2023-07-28T05:08:36;21.50;99.90
8994;DHT22;4532;50.886;4.700;2023-07-28T05:11:06;21.50;99.90
8994;DHT22;4532;50.886;4.700;2023-07-28T05:13:33;21.50;99.90
8994;DHT22;4532;50.886;4.700;2023-07-28T05:16:05;21.50;99.90
8994;DHT22;4532;50.886;4.700;2023-07-28T05:18:32;21.50;99.90
8994;DHT22;4532;50.886;4.700;2023-07-28T05:21:01;21.50;99.90
8994;DHT22;4532;50.886;4.700;2023-07-28T05:23:28;21.50;99.90
8994;DHT22;4532;50.886;4.700;2023-07-28T05:25:58;21.50;99.90
8994;DHT22;4532;50.886;4.700;2023-07-28T05:28:25;21.50;99.90
8994;DHT22;4532;50.886;4.700;2023-07-28T05:31:02;21.50;99.90
8994;DHT22;4532;50.886;4.700;2023-07-28T05:33:34;21.60;99.90
8994;DHT22;4532;50.886;4.700;2023-07-28T05:36:04;21.60;99.90
8994;DHT22;4532;50.886;4.700;2023-07-28T05:38:34;21.60;99.90
8994;DHT22;4532;50.886;4.700;2023-07-28T05:41:03;21.60;99.90
8994;DHT22;4532;50.886;4.700;2023-07-28T05:43:31;21.60;99.90
8994;DHT22;4532;50.886;4.700;2023-07-28T05:45:59;21.70;99.90
8994;DHT22;4532;50.886;4.700;2023-07-28T05:48:29;21.70;99.90
8994;DHT22;4532;50.886;4.700;2023-07-28T05:50:56;21.70;99.90
8994;DHT22;4532;50.886;4.700;2023-07-28T05:53:26;21.70;99.90
8994;DHT22;4532;50.886;4.700;2023-07-28T05:55:56;21.70;99.90
8994;DHT22;4532;50.886;4.700;2023-07-28T05:58:27;21.80;99.90
8994;DHT22;4532;50.886;4.700;2023-07-28T06:00:55;21.80;99.90
8994;DHT22;4532;50.886;4.700;2023-07-28T06:03:22;21.80;99.90
8994;DHT22;4532;50.886;4.700;2023-07-28T06:05:50;21.80;99.90
8994;DHT22;4532;50.886;4.700;2023-07-28T06:08:17;21.80;99.90
8994;DHT22;4532;50.886;4.700;2023-07-28T06:10:44;21.90;99.90
8994;DHT22;4532;50.886;4.700;2023-07-28T06:13:12;21.90;99.90
8994;DHT22;4532;50.886;4.700;2023-07-28T06:15:42;21.90;99.90
8994;DHT22;4532;50.886;4.700;2023-07-28T06:18:09;22.00;99.90
8994;DHT22;4532;50.886;4.700;2023-07-28T06:20:43;22.00;99.90
8994;DHT22;4532;50.886;4.700;2023-07-28T06:23:13;22.00;99.90
8994;DHT22;4532;50.886;4.700;2023-07-28T06:25:40;22.00;99.90
8994;DHT22;4532;50.886;4.700;2023-07-28T06:28:11;22.10;99.90
8994;DHT22;4532;50.886;4.700;2023-07-28T06:30:39;22.10;99.90
8994;DHT22;4532;50.886;4.700;2023-07-28T06:33:06;22.10;99.90
8994;DHT22;4532;50.886;4.700;2023-07-28T06:35:33;22.10;99.90
8994;DHT22;4532;50.886;4.700;2023-07-28T06:38:01;22.20;99.90
8994;DHT22;4532;50.886;4.700;2023-07-28T06:40:31;22.20;99.90
8994;DHT22;4532;50.886;4.700;2023-07-28T06:42:58;22.20;99.90
8994;DHT22;4532;50.886;4.700;2023-07-28T06:45:25;22.20;99.90
8994;DHT22;4532;50.886;4.700;2023-07-28T06:47:53;22.20;99.90
8994;DHT22;4532;50.886;4.700;2023-07-28T06:50:20;22.20;99.90
8994;DHT22;4532;50.886;4.700;2023-07-28T06:52:47;22.20;99.90
8994;DHT22;4532;50.886;4.700;2023-07-28T06:55:17;22.20;99.90
8994;DHT22;4532;50.886;4.700;2023-07-28T06:57:47;22.20;99.90
8994;DHT22;4532;50.886;4.700;2023-07-28T07:00:19;22.20;99.90
8994;DHT22;4532;50.886;4.700;2023-07-28T07:02:46;22.20;99.90
8994;DHT22;4532;50.886;4.700;2023-07-28T07:05:16;22.30;99.90
8994;DHT22;4532;50.886;4.700;2023-07-28T07:07:43;22.30;99.90
8994;DHT22;4532;50.886;4.700;2023-07-28T07:10:13;22.30;99.90
8994;DHT22;4532;50.886;4.700;2023-07-28T07:12:40;22.30;99.90
8994;DHT22;4532;50.886;4.700;2023-07-28T07:15:08;22.30;99.90
8994;DHT22;4532;50.886;4.700;2023-07-28T07:17:38;22.40;99.90
8994;DHT22;4532;50.886;4.700;2023-07-28T07:20:09;22.40;99.90
8994;DHT22;4532;50.886;4.700;2023-07-28T07:22:39;22.40;99.90
8994;DHT22;4532;50.886;4.700;2023-07-28T07:25:06;22.40;99.90
8994;DHT22;4532;50.886;4.700;2023-07-28T07:27:34;22.40;99.90
8994;DHT22;4532;50.886;4.700;2023-07-28T07:30:04;22.50;99.90
8994;DHT22;4532;50.886;4.700;2023-07-28T07:32:34;22.50;99.90
8994;DHT22;4532;50.886;4.700;2023-07-28T07:35:02;22.60;99.90
8994;DHT22;4532;50.886;4.700;2023-07-28T07:37:29;22.60;99.90
8994;DHT22;4532;50.886;4.700;2023-07-28T07:39:59;22.60;99.90
8994;DHT22;4532;50.886;4.700;2023-07-28T07:42:28;22.60;99.90
8994;DHT22;4532;50.886;4.700;2023-07-28T07:45:10;22.70;99.90
8994;DHT22;4532;50.886;4.700;2023-07-28T07:47:39;22.60;99.90
8994;DHT22;4532;50.886;4.700;2023-07-28T07:50:08;22.60;99.90
8994;DHT22;4532;50.886;4.700;2023-07-28T07:52:38;22.60;99.90
8994;DHT22;4532;50.886;4.700;2023-07-28T07:55:10;22.70;99.90
8994;DHT22;4532;50.886;4.700;2023-07-28T07:57:40;22.70;99.90
8994;DHT22;4532;50.886;4.700;2023-07-28T08:00:10;22.60;99.90
8994;DHT22;4532;50.886;4.700;2023-07-28T08:02:38;22.70;99.90
8994;DHT22;4532;50.886;4.700;2023-07-28T08:05:12;22.70;99.90
8994;DHT22;4532;50.886;4.700;2023-07-28T08:07:39;22.70;99.90
8994;DHT22;4532;50.886;4.700;2023-07-28T08:10:09;22.70;99.90
8994;DHT22;4532;50.886;4.700;2023-07-28T08:12:38;22.70;99.90
8994;DHT22;4532;50.886;4.700;2023-07-28T08:15:08;22.80;99.90
8994;DHT22;4532;50.886;4.700;2023-07-28T08:17:37;22.80;99.90
8994;DHT22;4532;50.886;4.700;2023-07-28T08:20:08;22.80;99.90
8994;DHT22;4532;50.886;4.700;2023-07-28T08:22:37;22.90;99.90
8994;DHT22;4532;50.886;4.700;2023-07-28T08:25:07;23.00;99.90
8994;DHT22;4532;50.886;4.700;2023-07-28T08:27:35;23.00;99.90
8994;DHT22;4532;50.886;4.700;2023-07-28T08:30:03;23.00;99.90
8994;DHT22;4532;50.886;4.700;2023-07-28T08:32:31;23.00;99.90
8994;DHT22;4532;50.886;4.700;2023-07-28T08:35:00;23.00;99.90
8994;DHT22;4532;50.886;4.700;2023-07-28T08:37:32;23.10;99.90
8994;DHT22;4532;50.886;4.700;2023-07-28T08:40:05;23.10;99.90
8994;DHT22;4532;50.886;4.700;2023-07-28T08:42:37;23.10;99.90
8994;DHT22;4532;50.886;4.700;2023-07-28T08:45:06;23.20;99.90
8994;DHT22;4532;50.886;4.700;2023-07-28T08:47:37;23.20;99.90
8994;DHT22;4532;50.886;4.700;2023-07-28T08:50:09;23.20;99.90
8994;DHT22;4532;50.886;4.700;2023-07-28T08:52:36;23.30;99.90
8994;DHT22;4532;50.886;4.700;2023-07-28T08:55:04;23.30;99.90
8994;DHT22;4532;50.886;4.700;2023-07-28T08:57:31;23.40;99.90
8994;DHT22;4532;50.886;4.700;2023-07-28T09:00:11;23.40;99.90
8994;DHT22;4532;50.886;4.700;2023-07-28T09:02:41;23.50;99.90
8994;DHT22;4532;50.886;4.700;2023-07-28T09:05:19;23.50;99.90
8994;DHT22;4532;50.886;4.700;2023-07-28T09:07:51;23.50;99.90
8994;DHT22;4532;50.886;4.700;2023-07-28T09:10:19;23.60;99.90
8994;DHT22;4532;50.886;4.700;2023-07-28T09:12:50;23.60;99.90
8994;DHT22;4532;50.886;4.700;2023-07-28T09:15:18;23.60;99.90
8994;DHT22;4532;50.886;4.700;2023-07-28T09:17:46;23.70;99.90
8994;DHT22;4532;50.886;4.700;2023-07-28T09:20:16;23.70;99.90
8994;DHT22;4532;50.886;4.700;2023-07-28T09:22:44;23.70;99.90
8994;DHT22;4532;50.886;4.700;2023-07-28T09:25:19;23.70;99.90
8994;DHT22;4532;50.886;4.700;2023-07-28T09:27:53;23.70;99.90
8994;DHT22;4532;50.886;4.700;2023-07-28T09:30:21;23.70;99.90
8994;DHT22;4532;50.886;4.700;2023-07-28T09:32:51;23.70;99.90
8994;DHT22;4532;50.886;4.700;2023-07-28T09:35:20;23.70;99.90
8994;DHT22;4532;50.886;4.700;2023-07-28T09:37:50;23.70;99.90
8994;DHT22;4532;50.886;4.700;2023-07-28T09:40:23;23.70;99.90
8994;DHT22;4532;50.886;4.700;2023-07-28T09:42:52;23.70;99.90
8994;DHT22;4532;50.886;4.700;2023-07-28T09:45:23;23.70;99.90
8994;DHT22;4532;50.886;4.700;2023-07-28T09:48:05;23.70;99.90
8994;DHT22;4532;50.886;4.700;2023-07-28T09:50:37;23.70;99.90
8994;DHT22;4532;50.886;4.700;2023-07-28T09:53:12;23.70;99.90
8994;DHT22;4532;50.886;4.700;2023-07-28T09:55:45;23.70;99.90
8994;DHT22;4532;50.886;4.700;2023-07-28T09:58:16;23.70;99.90
8994;DHT22;4532;50.886;4.700;2023-07-28T10:00:45;23.70;99.90
8994;DHT22;4532;50.886;4.700;2023-07-28T10:03:14;23.70;99.90
8994;DHT22;4532;50.886;4.700;2023-07-28T10:05:44;23.70;99.90
8994;DHT22;4532;50.886;4.700;2023-07-28T10:08:12;23.70;99.90
8994;DHT22;4532;50.886;4.700;2023-07-28T10:10:40;23.70;99.90
8994;DHT22;4532;50.886;4.700;2023-07-28T10:13:20;23.70;99.90
8994;DHT22;4532;50.886;4.700;2023-07-28T10:15:48;23.70;99.90
8994;DHT22;4532;50.886;4.700;2023-07-28T10:18:20;23.80;99.90
8994;DHT22;4532;50.886;4.700;2023-07-28T10:20:47;23.80;99.90
8994;DHT22;4532;50.886;4.700;2023-07-28T10:23:25;23.80;99.90
8994;DHT22;4532;50.886;4.700;2023-07-28T10:25:58;23.80;99.90
8994;DHT22;4532;50.886;4.700;2023-07-28T10:28:32;23.80;99.90
8994;DHT22;4532;50.886;4.700;2023-07-28T10:31:02;23.90;99.90
8994;DHT22;4532;50.886;4.700;2023-07-28T10:33:34;23.90;99.90
8994;DHT22;4532;50.886;4.700;2023-07-28T10:41:35;24.10;99.90
8994;DHT22;4532;50.886;4.700;2023-07-28T10:44:02;24.10;99.90
8994;DHT22;4532;50.886;4.700;2023-07-28T10:46:35;24.10;99.90
8994;DHT22;4532;50.886;4.700;2023-07-28T10:49:06;24.10;99.90
8994;DHT22;4532;50.886;4.700;2023-07-28T10:51:36;24.20;99.90
8994;DHT22;4532;50.886;4.700;2023-07-28T10:54:05;24.20;99.90
8994;DHT22;4532;50.886;4.700;2023-07-28T10:56:33;24.20;99.90
8994;DHT22;4532;50.886;4.700;2023-07-28T10:59:04;24.20;99.90
8994;DHT22;4532;50.886;4.700;2023-07-28T11:01:40;24.30;99.90
8994;DHT22;4532;50.886;4.700;2023-07-28T11:04:18;24.30;99.90
8994;DHT22;4532;50.886;4.700;2023-07-28T11:06:51;24.30;99.90
8994;DHT22;4532;50.886;4.700;2023-07-28T11:09:22;24.30;99.90
8994;DHT22;4532;50.886;4.700;2023-07-28T11:11:51;24.40;99.90
8994;DHT22;4532;50.886;4.700;2023-07-28T11:14:19;24.40;99.90
8994;DHT22;4532;50.886;4.700;2023-07-28T11:16:56;24.40;99.90
8994;DHT22;4532;50.886;4.700;2023-07-28T11:19:26;24.40;99.90
8994;DHT22;4532;50.886;4.700;2023-07-28T11:21:55;24.50;99.90
8994;DHT22;4532;50.886;4.700;2023-07-28T11:24:24;24.50;99.90
8994;DHT22;4532;50.886;4.700;2023-07-28T11:26:57;24.50;99.90
8994;DHT22;4532;50.886;4.700;2023-07-28T11:29:27;24.50;99.90
8994;DHT22;4532;50.886;4.700;2023-07-28T11:31:55;24.50;99.90
8994;DHT22;4532;50.886;4.700;2023-07-28T11:34:22;24.50;99.90
8994;DHT22;4532;50.886;4.700;2023-07-28T11:36:49;24.50;99.90
8994;DHT22;4532;50.886;4.700;2023-07-28T11:39:17;24.50;99.90
8994;DHT22;4532;50.886;4.700;2023-07-28T11:41:51;24.60;99.90
8994;DHT22;4532;50.886;4.700;2023-07-28T11:44:23;24.60;99.90
8994;DHT22;4532;50.886;4.700;2023-07-28T11:46:51;24.60;99.90
8994;DHT22;4532;50.886;4.700;2023-07-28T11:49:22;24.60;99.90
8994;DHT22;4532;50.886;4.700;2023-07-28T11:51:54;24.60;99.90
8994;DHT22;4532;50.886;4.700;2023-07-28T11:54:23;24.60;99.90
8994;DHT22;4532;50.886;4.700;2023-07-28T11:56:54;24.70;99.90
8994;DHT22;4532;50.886;4.700;2023-07-28T11:59:22;24.70;99.90
8994;DHT22;4532;50.886;4.700;2023-07-28T12:01:56;24.70;99.90
8994;DHT22;4532;50.886;4.700;2023-07-28T12:04:31;24.80;99.90
8994;DHT22;4532;50.886;4.700;2023-07-28T12:07:16;24.80;99.90
8994;DHT22;4532;50.886;4.700;2023-07-28T12:12:45;24.80;99.90
8994;DHT22;4532;50.886;4.700;2023-07-28T12:15:28;24.90;99.90
8994;DHT22;4532;50.886;4.700;2023-07-28T12:20:44;24.90;99.90
8994;DHT22;4532;50.886;4.700;2023-07-28T12:23:20;24.90;99.90
8994;DHT22;4532;50.886;4.700;2023-07-28T12:25:53;24.90;99.90
8994;DHT22;4532;50.886;4.700;2023-07-28T12:28:25;25.00;99.90
8994;DHT22;4532;50.886;4.700;2023-07-28T12:30:53;25.00;99.90
8994;DHT22;4532;50.886;4.700;2023-07-28T12:33:23;25.00;99.90
8994;DHT22;4532;50.886;4.700;2023-07-28T12:36:05;25.00;99.90
8994;DHT22;4532;50.886;4.700;2023-07-28T12:38:36;25.00;99.90
8994;DHT22;4532;50.886;4.700;2023-07-28T12:41:08;25.00;99.90
8994;DHT22;4532;50.886;4.700;2023-07-28T12:43:36;25.00;99.90
8994;DHT22;4532;50.886;4.700;2023-07-28T12:46:06;25.10;99.90
8994;DHT22;4532;50.886;4.700;2023-07-28T12:48:37;25.10;99.90
8994;DHT22;4532;50.886;4.700;2023-07-28T12:51:10;25.10;99.90
8994;DHT22;4532;50.886;4.700;2023-07-28T12:53:38;25.10;99.90
8994;DHT22;4532;50.886;4.700;2023-07-28T12:56:07;25.10;99.90
8994;DHT22;4532;50.886;4.700;2023-07-28T12:58:34;25.20;99.90
8994;DHT22;4532;50.886;4.700;2023-07-28T13:01:04;25.10;99.90
8994;DHT22;4532;50.886;4.700;2023-07-28T13:03:34;25.10;99.90
8994;DHT22;4532;50.886;4.700;2023-07-28T13:06:04;25.10;99.90
8994;DHT22;4532;50.886;4.700;2023-07-28T13:08:31;25.10;99.90
8994;DHT22;4532;50.886;4.700;2023-07-28T13:11:05;25.00;99.90
8994;DHT22;4532;50.886;4.700;2023-07-28T13:13:40;25.00;99.90
8994;DHT22;4532;50.886;4.700;2023-07-28T13:16:10;25.00;99.90
8994;DHT22;4532;50.886;4.700;2023-07-28T13:18:39;25.00;99.90
8994;DHT22;4532;50.886;4.700;2023-07-28T13:21:09;25.00;99.90
8994;DHT22;4532;50.886;4.700;2023-07-28T13:23:39;25.00;99.90
8994;DHT22;4532;50.886;4.700;2023-07-28T13:26:07;25.00;99.90
8994;DHT22;4532;50.886;4.700;2023-07-28T13:28:35;25.00;99.90
8994;DHT22;4532;50.886;4.700;2023-07-28T13:31:02;25.10;99.90
8994;DHT22;4532;50.886;4.700;2023-07-28T13:33:34;25.10;99.90
8994;DHT22;4532;50.886;4.700;2023-07-28T13:36:06;25.10;99.90
8994;DHT22;4532;50.886;4.700;2023-07-28T13:38:36;25.20;99.90
8994;DHT22;4532;50.886;4.700;2023-07-28T13:41:06;25.20;99.90
8994;DHT22;4532;50.886;4.700;2023-07-28T13:43:34;25.20;99.90
8994;DHT22;4532;50.886;4.700;2023-07-28T13:46:07;25.20;99.90
8994;DHT22;4532;50.886;4.700;2023-07-28T13:48:37;25.20;99.90
8994;DHT22;4532;50.886;4.700;2023-07-28T13:51:18;25.20;99.90
8994;DHT22;4532;50.886;4.700;2023-07-28T13:53:52;25.10;99.90
8994;DHT22;4532;50.886;4.700;2023-07-28T13:56:25;25.10;99.90
8994;DHT22;4532;50.886;4.700;2023-07-28T13:58:55;25.10;99.90
8994;DHT22;4532;50.886;4.700;2023-07-28T14:01:22;25.10;99.90
8994;DHT22;4532;50.886;4.700;2023-07-28T14:03:49;25.10;99.90
8994;DHT22;4532;50.886;4.700;2023-07-28T14:06:22;25.00;99.90
8994;DHT22;4532;50.886;4.700;2023-07-28T14:08:51;25.00;99.90
8994;DHT22;4532;50.886;4.700;2023-07-28T14:11:21;25.00;99.90
8994;DHT22;4532;50.886;4.700;2023-07-28T14:13:48;25.00;99.90
8994;DHT22;4532;50.886;4.700;2023-07-28T14:16:15;25.00;99.90
8994;DHT22;4532;50.886;4.700;2023-07-28T14:18:42;25.00;99.90
8994;DHT22;4532;50.886;4.700;2023-07-28T14:21:14;25.00;99.90
8994;DHT22;4532;50.886;4.700;2023-07-28T14:23:41;25.00;99.90
8994;DHT22;4532;50.886;4.700;2023-07-28T14:26:11;25.00;99.90
8994;DHT22;4532;50.886;4.700;2023-07-28T14:28:40;25.00;99.90
8994;DHT22;4532;50.886;4.700;2023-07-28T14:31:07;25.10;99.90
8994;DHT22;4532;50.886;4.700;2023-07-28T14:33:37;25.10;99.90
8994;DHT22;4532;50.886;4.700;2023-07-28T14:36:04;25.10;99.90
8994;DHT22;4532;50.886;4.700;2023-07-28T14:38:32;25.10;99.90
8994;DHT22;4532;50.886;4.700;2023-07-28T14:40:59;25.20;99.90
8994;DHT22;4532;50.886;4.700;2023-07-28T14:43:26;25.20;99.90
8994;DHT22;4532;50.886;4.700;2023-07-28T14:45:58;25.20;99.90
8994;DHT22;4532;50.886;4.700;2023-07-28T14:48:26;25.30;99.90
8994;DHT22;4532;50.886;4.700;2023-07-28T14:50:55;25.30;99.90
8994;DHT22;4532;50.886;4.700;2023-07-28T14:56:06;25.30;99.90
8994;DHT22;4532;50.886;4.700;2023-07-28T14:58:38;25.40;99.90
8994;DHT22;4532;50.886;4.700;2023-07-28T15:01:09;25.40;99.90
8994;DHT22;4532;50.886;4.700;2023-07-28T15:03:37;25.40;99.90
8994;DHT22;4532;50.886;4.700;2023-07-28T15:06:22;25.50;99.90
8994;DHT22;4532;50.886;4.700;2023-07-28T15:08:50;25.50;99.90
8994;DHT22;4532;50.886;4.700;2023-07-28T15:11:17;25.50;99.90
8994;DHT22;4532;50.886;4.700;2023-07-28T15:13:47;25.60;99.90
8994;DHT22;4532;50.886;4.700;2023-07-28T15:16:17;25.60;99.90
8994;DHT22;4532;50.886;4.700;2023-07-28T15:18:48;25.60;99.90
8994;DHT22;4532;50.886;4.700;2023-07-28T15:21:16;25.70;99.90
8994;DHT22;4532;50.886;4.700;2023-07-28T15:23:46;25.70;99.90
8994;DHT22;4532;50.886;4.700;2023-07-28T15:26:19;25.80;99.90
8994;DHT22;4532;50.886;4.700;2023-07-28T15:28:49;25.80;99.90
8994;DHT22;4532;50.886;4.700;2023-07-28T15:31:18;25.90;99.90
8994;DHT22;4532;50.886;4.700;2023-07-28T15:33:46;25.90;99.90
8994;DHT22;4532;50.886;4.700;2023-07-28T15:36:13;26.00;99.90
8994;DHT22;4532;50.886;4.700;2023-07-28T15:38:45;26.00;99.90
8994;DHT22;4532;50.886;4.700;2023-07-28T15:41:12;26.10;99.90
8994;DHT22;4532;50.886;4.700;2023-07-28T15:43:45;26.10;99.90
8994;DHT22;4532;50.886;4.700;2023-07-28T15:46:13;26.20;99.90
8994;DHT22;4532;50.886;4.700;2023-07-28T15:48:42;26.20;99.90
8994;DHT22;4532;50.886;4.700;2023-07-28T15:51:11;26.30;99.90
8994;DHT22;4532;50.886;4.700;2023-07-28T15:53:40;26.30;99.90
8994;DHT22;4532;50.886;4.700;2023-07-28T15:56:07;26.40;99.90
8994;DHT22;4532;50.886;4.700;2023-07-28T15:58:35;26.40;99.90
8994;DHT22;4532;50.886;4.700;2023-07-28T16:01:02;26.40;99.90
8994;DHT22;4532;50.886;4.700;2023-07-28T16:03:30;26.40;99.90
8994;DHT22;4532;50.886;4.700;2023-07-28T16:05:59;26.50;99.90
8994;DHT22;4532;50.886;4.700;2023-07-28T16:08:31;26.50;99.90
8994;DHT22;4532;50.886;4.700;2023-07-28T16:11:01;26.60;99.90
8994;DHT22;4532;50.886;4.700;2023-07-28T16:13:29;26.60;99.90
8994;DHT22;4532;50.886;4.700;2023-07-28T16:16:03;26.60;99.90
8994;DHT22;4532;50.886;4.700;2023-07-28T16:18:30;26.60;99.90
8994;DHT22;4532;50.886;4.700;2023-07-28T16:21:02;26.70;99.90
8994;DHT22;4532;50.886;4.700;2023-07-28T16:23:31;26.70;99.90
8994;DHT22;4532;50.886;4.700;2023-07-28T16:25:58;26.70;99.90
8994;DHT22;4532;50.886;4.700;2023-07-28T16:28:28;26.70;99.90
8994;DHT22;4532;50.886;4.700;2023-07-28T16:30:55;26.70;99.90
8994;DHT22;4532;50.886;4.700;2023-07-28T16:33:22;26.80;99.90
8994;DHT22;4532;50.886;4.700;2023-07-28T16:35:50;26.80;99.90
8994;DHT22;4532;50.886;4.700;2023-07-28T16:38:20;26.80;99.90